sensor_id;sensor_type;location;lat;lon;timestamp;temperature;humidity
14119;DHT22;7138;49.246;9.100;2023-05-10T00:01:53;12.80;99.90
14119;DHT22;7138;49.246;9.100;2023-05-10T00:04:19;12.70;99.90
14119;DHT22;7138;49.246;9.100;2023-05-10T00:06:46;12.80;99.90
14119;DHT22;7138;49.246;9.100;2023-05-10T00:09:11;12.70;99.90
14119;DHT22;7138;49.246;9.100;2023-05-10T00:11:37;12.70;99.90
14119;DHT22;7138;49.246;9.100;2023-05-10T00:14:03;12.70;99.90
14119;DHT22;7138;49.246;9.100;2023-05-10T00:16:29;12.70;99.90
14119;DHT22;7138;49.246;9.100;2023-05-10T00:18:56;12.70;99.90
14119;DHT22;7138;49.246;9.100;2023-05-10T00:21:22;12.70;99.90
14119;DHT22;7138;49.246;9.100;2023-05-10T00:23:48;12.70;99.90
14119;DHT22;7138;49.246;9.100;2023-05-10T00:26:14;12.70;99.90
14119;DHT22;7138;49.246;9.100;2023-05-10T00:28:40;12.70;99.90
14119;DHT22;7138;49.246;9.100;2023-05-10T00:31:06;12.70;99.90
14119;DHT22;7138;49.246;9.100;2023-05-10T00:33:32;12.70;99.90
14119;DHT22;7138;49.246;9.100;2023-05-10T00:35:59;12.70;99.90
14119;DHT22;7138;49.246;9.100;2023-05-10T00:38:25;12.70;99.90
14119;DHT22;7138;49.246;9.100;2023-05-10T00:40:51;12.70;99.90
14119;DHT22;7138;49.246;9.100;2023-05-10T00:43:16;12.60;99.90
14119;DHT22;7138;49.246;9.100;2023-05-10T00:45:43;12.60;99.90
14119;DHT22;7138;49.246;9.100;2023-05-10T00:48:09;12.60;99.90
14119;DHT22;7138;49.246;9.100;2023-05-10T00:50:35;12.60;99.90
14119;DHT22;7138;49.246;9.100;2023-05-10T00:53:03;12.60;99.90
14119;DHT22;7138;49.246;9.100;2023-05-10T00:55:30;12.50;99.90
14119;DHT22;7138;49.246;9.100;2023-05-10T00:57:56;12.50;99.90
14119;DHT22;7138;49.246;9.100;2023-05-10T01:00:22;12.50;99.90
14119;DHT22;7138;49.246;9.100;2023-05-10T01:02:48;12.50;99.90
14119;DHT22;7138;49.246;9.100;2023-05-10T01:05:15;12.50;99.90
14119;DHT22;7138;49.246;9.100;2023-05-10T01:07:40;12.50;99.90
14119;DHT22;7138;49.246;9.100;2023-05-10T01:10:09;12.50;99.90
14119;DHT22;7138;49.246;9.100;2023-05-10T01:12:38;12.40;99.90
14119;DHT22;7138;49.246;9.100;2023-05-10T01:15:07;12.40;99.90
14119;DHT22;7138;49.246;9.100;2023-05-10T01:17:35;12.40;99.90
14119;DHT22;7138;49.246;9.100;2023-05-10T01:20:03;12.40;99.90
14119;DHT22;7138;49.246;9.100;2023-05-10T01:26:13;12.40;99.90
14119;DHT22;7138;49.246;9.100;2023-05-10T01:29:14;12.40;99.90
14119;DHT22;7138;49.246;9.100;2023-05-10T01:35:00;12.40;99.90
14119;DHT22;7138;49.246;9.100;2023-05-10T01:37:36;12.40;99.90
14119;DHT22;7138;49.246;9.100;2023-05-10T01:40:13;12.40;99.90
14119;DHT22;7138;49.246;9.100;2023-05-10T01:42:49;12.30;99.90
14119;DHT22;7138;49.246;9.100;2023-05-10T01:45:22;12.40;99.90
14119;DHT22;7138;49.246;9.100;2023-05-10T01:48:02;12.30;99.90
14119;DHT22;7138;49.246;9.100;2023-05-10T01:50:32;12.30;99.90
14119;DHT22;7138;49.246;9.100;2023-05-10T01:53:00;12.40;99.90
14119;DHT22;7138;49.246;9.100;2023-05-10T01:55:30;12.30;99.90
14119;DHT22;7138;49.246;9.100;2023-05-10T01:58:09;12.40;99.90
14119;DHT22;7138;49.246;9.100;2023-05-10T02:00:40;12.30;99.90
14119;DHT22;7138;49.246;9.100;2023-05-10T02:03:12;12.30;99.90
14119;DHT22;7138;49.246;9.100;2023-05-10T02:05:41;12.30;99.90
14119;DHT22;7138;49.246;9.100;2023-05-10T02:08:11;12.20;99.90
14119;DHT22;7138;49.246;9.100;2023-05-10T02:10:40;12.30;99.90
14119;DHT22;7138;49.246;9.100;2023-05-10T02:13:08;12.30;99.90
14119;DHT22;7138;49.246;9.100;2023-05-10T02:15:37;12.30;99.90
14119;DHT22;7138;49.246;9.100;2023-05-10T02:18:06;12.20;99.90
14119;DHT22;7138;49.246;9.100;2023-05-10T02:20:36;12.30;99.90
14119;DHT22;7138;49.246;9.100;2023-05-10T02:23:03;12.20;99.90
14119;DHT22;7138;49.246;9.100;2023-05-10T02:25:31;12.30;99.90
14119;DHT22;7138;49.246;9.100;2023-05-10T02:28:01;12.20;99.90
14119;DHT22;7138;49.246;9.100;2023-05-10T02:30:29;12.20;99.90
14119;DHT22;7138;49.246;9.100;2023-05-10T02:32:57;12.20;99.90
14119;DHT22;7138;49.246;9.100;2023-05-10T02:35:25;12.20;99.90
14119;DHT22;7138;49.246;9.100;2023-05-10T02:37:54;12.10;99.90
14119;DHT22;7138;49.246;9.100;2023-05-10T02:40:22;12.10;99.90
14119;DHT22;7138;49.246;9.100;2023-05-10T02:42:52;12.10;99.90
14119;DHT22;7138;49.246;9.100;2023-05-10T02:45:24;12.00;99.90
14119;DHT22;7138;49.246;9.100;2023-05-10T02:47:53;12.00;99.90
14119;DHT22;7138;49.246;9.100;2023-05-10T02:50:20;12.00;99.90
14119;DHT22;7138;49.246;9.100;2023-05-10T02:52:50;12.00;99.90
14119;DHT22;7138;49.246;9.100;2023-05-10T02:55:24;12.00;99.90
14119;DHT22;7138;49.246;9.100;2023-05-10T02:57:58;12.00;99.90
14119;DHT22;7138;49.246;9.100;2023-05-10T03:00:26;12.00;99.90
14119;DHT22;7138;49.246;9.100;2023-05-10T03:02:52;12.00;99.90
14119;DHT22;7138;49.246;9.100;2023-05-10T03:05:18;12.00;99.90
14119;DHT22;7138;49.246;9.100;2023-05-10T03:07:44;12.00;99.90
14119;DHT22;7138;49.246;9.100;2023-05-10T03:10:11;12.00;99.90
14119;DHT22;7138;49.246;9.100;2023-05-10T03:12:50;12.00;99.90
14119;DHT22;7138;49.246;9.100;2023-05-10T03:15:33;12.00;99.90
14119;DHT22;7138;49.246;9.100;2023-05-10T03:18:06;12.00;99.90
14119;DHT22;7138;49.246;9.100;2023-05-10T03:20:42;12.00;99.90
14119;DHT22;7138;49.246;9.100;2023-05-10T03:23:13;12.10;99.90
14119;DHT22;7138;49.246;9.100;2023-05-10T03:25:48;12.10;99.90
14119;DHT22;7138;49.246;9.100;2023-05-10T03:28:18;12.10;99.90
14119;DHT22;7138;49.246;9.100;2023-05-10T03:30:46;12.10;99.90
14119;DHT22;7138;49.246;9.100;2023-05-10T03:33:13;12.10;99.90
14119;DHT22;7138;49.246;9.100;2023-05-10T03:35:39;12.10;99.90
14119;DHT22;7138;49.246;9.100;2023-05-10T03:38:05;12.10;99.90
14119;DHT22;7138;49.246;9.100;2023-05-10T03:40:31;12.20;99.90
14119;DHT22;7138;49.246;9.100;2023-05-10T03:42:57;12.20;99.90
14119;DHT22;7138;49.246;9.100;2023-05-10T03:45:24;12.20;99.90
14119;DHT22;7138;49.246;9.100;2023-05-10T03:47:50;12.20;99.90
14119;DHT22;7138;49.246;9.100;2023-05-10T03:50:16;12.20;99.90
14119;DHT22;7138;49.246;9.100;2023-05-10T03:52:42;12.20;99.90
14119;DHT22;7138;49.246;9.100;2023-05-10T03:55:09;12.20;99.90
14119;DHT22;7138;49.246;9.100;2023-05-10T03:57:34;12.30;99.90
14119;DHT22;7138;49.246;9.100;2023-05-10T04:00:01;12.20;99.90
14119;DHT22;7138;49.246;9.100;2023-05-10T04:02:28;12.30;99.90
14119;DHT22;7138;49.246;9.100;2023-05-10T04:04:55;12.30;99.90
14119;DHT22;7138;49.246;9.100;2023-05-10T04:07:21;12.30;99.90
14119;DHT22;7138;49.246;9.100;2023-05-10T04:09:47;12.30;99.90
14119;DHT22;7138;49.246;9.100;2023-05-10T04:12:13;12.30;99.90
14119;DHT22;7138;49.246;9.100;2023-05-10T04:14:38;12.30;99.90
14119;DHT22;7138;49.246;9.100;2023-05-10T04:17:04;12.30;99.90
14119;DHT22;7138;49.246;9.100;2023-05-10T04:19:32;12.20;99.90
14119;DHT22;7138;49.246;9.100;2023-05-10T04:21:58;12.20;99.90
14119;DHT22;7138;49.246;9.100;2023-05-10T04:24:24;12.20;99.90
14119;DHT22;7138;49.246;9.100;2023-05-10T04:26:51;12.30;99.90
14119;DHT22;7138;49.246;9.100;2023-05-10T04:29:17;12.30;99.90
14119;DHT22;7138;49.246;9.100;2023-05-10T04:31:42;12.30;99.90
14119;DHT22;7138;49.246;9.100;2023-05-10T04:34:08;12.30;99.90
14119;DHT22;7138;49.246;9.100;2023-05-10T04:36:35;12.30;99.90
14119;DHT22;7138;49.246;9.100;2023-05-10T04:39:02;12.30;99.90
14119;DHT22;7138;49.246;9.100;2023-05-10T04:41:28;12.30;99.90
14119;DHT22;7138;49.246;9.100;2023-05-10T04:43:55;12.30;99.90
14119;DHT22;7138;49.246;9.100;2023-05-10T04:46:21;12.30;99.90
14119;DHT22;7138;49.246;9.100;2023-05-10T04:48:47;12.30;99.90
14119;DHT22;7138;49.246;9.100;2023-05-10T04:51:13;12.40;99.90
14119;DHT22;7138;49.246;9.100;2023-05-10T04:53:40;12.30;99.90
14119;DHT22;7138;49.246;9.100;2023-05-10T04:56:06;12.30;99.90
14119;DHT22;7138;49.246;9.100;2023-05-10T04:58:32;12.30;99.90
14119;DHT22;7138;49.246;9.100;2023-05-10T05:01:05;12.40;99.90
14119;DHT22;7138;49.246;9.100;2023-05-10T05:03:31;12.40;99.90
14119;DHT22;7138;49.246;9.100;2023-05-10T05:05:58;12.40;99.90
14119;DHT22;7138;49.246;9.100;2023-05-10T05:08:23;12.50;99.90
14119;DHT22;7138;49.246;9.100;2023-05-10T05:10:51;12.50;99.90
14119;DHT22;7138;49.246;9.100;2023-05-10T05:13:16;12.40;99.90
14119;DHT22;7138;49.246;9.100;2023-05-10T05:15:42;12.60;99.90
14119;DHT22;7138;49.246;9.100;2023-05-10T05:18:08;12.50;99.90
14119;DHT22;7138;49.246;9.100;2023-05-10T05:20:34;12.50;99.90
14119;DHT22;7138;49.246;9.100;2023-05-10T05:23:00;12.50;99.90
14119;DHT22;7138;49.246;9.100;2023-05-10T05:25:26;12.60;99.90
14119;DHT22;7138;49.246;9.100;2023-05-10T05:27:53;12.60;99.90
14119;DHT22;7138;49.246;9.100;2023-05-10T05:30:19;12.60;99.90
14119;DHT22;7138;49.246;9.100;2023-05-10T05:32:45;12.60;99.90
14119;DHT22;7138;49.246;9.100;2023-05-10T05:35:12;12.60;99.90
14119;DHT22;7138;49.246;9.100;2023-05-10T05:37:38;12.70;99.90
14119;DHT22;7138;49.246;9.100;2023-05-10T05:40:06;12.70;99.90
14119;DHT22;7138;49.246;9.100;2023-05-10T05:42:32;12.80;99.90
14119;DHT22;7138;49.246;9.100;2023-05-10T05:45:00;12.80;99.90
14119;DHT22;7138;49.246;9.100;2023-05-10T05:47:25;13.00;99.90
14119;DHT22;7138;49.246;9.100;2023-05-10T05:49:51;13.00;99.90
14119;DHT22;7138;49.246;9.100;2023-05-10T05:52:17;13.10;99.90
14119;DHT22;7138;49.246;9.100;2023-05-10T05:54:43;13.20;99.90
14119;DHT22;7138;49.246;9.100;2023-05-10T05:57:09;13.30;99.90
14119;DHT22;7138;49.246;9.100;2023-05-10T05:59:35;13.60;99.90
14119;DHT22;7138;49.246;9.100;2023-05-10T06:02:02;13.50;99.90
14119;DHT22;7138;49.246;9.100;2023-05-10T06:04:28;13.40;99.90
14119;DHT22;7138;49.246;9.100;2023-05-10T06:06:54;13.30;99.90
14119;DHT22;7138;49.246;9.100;2023-05-10T06:09:19;13.30;99.90
14119;DHT22;7138;49.246;9.100;2023-05-10T06:11:45;13.20;99.90
14119;DHT22;7138;49.246;9.100;2023-05-10T06:14:12;13.10;99.90
14119;DHT22;7138;49.246;9.100;2023-05-10T06:16:37;13.20;99.90
14119;DHT22;7138;49.246;9.100;2023-05-10T06:19:05;13.30;99.90
14119;DHT22;7138;49.246;9.100;2023-05-10T06:21:33;13.40;99.90
14119;DHT22;7138;49.246;9.100;2023-05-10T06:23:59;13.50;99.90
14119;DHT22;7138;49.246;9.100;2023-05-10T06:26:25;13.50;99.90
14119;DHT22;7138;49.246;9.100;2023-05-10T06:28:51;13.50;99.90
14119;DHT22;7138;49.246;9.100;2023-05-10T06:31:17;13.60;99.90
14119;DHT22;7138;49.246;9.100;2023-05-10T06:33:43;13.60;99.90
14119;DHT22;7138;49.246;9.100;2023-05-10T06:36:10;13.50;99.90
14119;DHT22;7138;49.246;9.100;2023-05-10T06:38:36;13.50;99.90
14119;DHT22;7138;49.246;9.100;2023-05-10T06:41:02;13.50;99.90
14119;DHT22;7138;49.246;9.100;2023-05-10T06:43:28;13.50;99.90
14119;DHT22;7138;49.246;9.100;2023-05-10T06:45:54;13.60;99.90
14119;DHT22;7138;49.246;9.100;2023-05-10T06:48:20;13.60;99.90
14119;DHT22;7138;49.246;9.100;2023-05-10T06:50:46;13.60;99.90
14119;DHT22;7138;49.246;9.100;2023-05-10T06:53:13;13.50;99.90
14119;DHT22;7138;49.246;9.100;2023-05-10T06:55:39;13.50;99.90
14119;DHT22;7138;49.246;9.100;2023-05-10T06:58:04;13.40;99.90
14119;DHT22;7138;49.246;9.100;2023-05-10T07:00:31;13.40;99.90
14119;DHT22;7138;49.246;9.100;2023-05-10T07:02:57;13.40;99.90
14119;DHT22;7138;49.246;9.100;2023-05-10T07:05:23;13.40;99.90
14119;DHT22;7138;49.246;9.100;2023-05-10T07:07:49;13.40;99.90
14119;DHT22;7138;49.246;9.100;2023-05-10T07:10:16;13.40;99.90
14119;DHT22;7138;49.246;9.100;2023-05-10T07:12:43;13.50;99.90
14119;DHT22;7138;49.246;9.100;2023-05-10T07:15:09;13.40;99.90
14119;DHT22;7138;49.246;9.100;2023-05-10T07:17:35;13.60;99.90
14119;DHT22;7138;49.246;9.100;2023-05-10T07:20:01;13.80;99.90
14119;DHT22;7138;49.246;9.100;2023-05-10T07:22:27;13.90;99.90
14119;DHT22;7138;49.246;9.100;2023-05-10T07:24:53;14.00;99.90
14119;DHT22;7138;49.246;9.100;2023-05-10T07:27:21;13.90;99.90
14119;DHT22;7138;49.246;9.100;2023-05-10T07:29:47;14.00;99.90
14119;DHT22;7138;49.246;9.100;2023-05-10T07:32:12;14.00;99.90
14119;DHT22;7138;49.246;9.100;2023-05-10T07:34:38;14.00;99.90
14119;DHT22;7138;49.246;9.100;2023-05-10T07:37:04;14.00;99.90
14119;DHT22;7138;49.246;9.100;2023-05-10T07:39:31;13.90;99.90
14119;DHT22;7138;49.246;9.100;2023-05-10T07:41:57;13.70;99.90
14119;DHT22;7138;49.246;9.100;2023-05-10T07:44:24;13.50;99.90
14119;DHT22;7138;49.246;9.100;2023-05-10T07:46:50;13.30;99.90
14119;DHT22;7138;49.246;9.100;2023-05-10T07:49:16;13.30;99.90
14119;DHT22;7138;49.246;9.100;2023-05-10T07:51:42;13.30;99.90
14119;DHT22;7138;49.246;9.100;2023-05-10T07:54:08;13.30;99.90
14119;DHT22;7138;49.246;9.100;2023-05-10T07:56:34;13.30;99.90
14119;DHT22;7138;49.246;9.100;2023-05-10T07:59:01;13.40;99.90
14119;DHT22;7138;49.246;9.100;2023-05-10T08:01:34;13.50;99.90
14119;DHT22;7138;49.246;9.100;2023-05-10T08:04:00;13.60;99.90
14119;DHT22;7138;49.246;9.100;2023-05-10T08:06:27;13.80;99.90
14119;DHT22;7138;49.246;9.100;2023-05-10T08:08:55;14.00;99.90
14119;DHT22;7138;49.246;9.100;2023-05-10T08:11:22;14.40;99.90
14119;DHT22;7138;49.246;9.100;2023-05-10T08:13:49;14.30;99.90
14119;DHT22;7138;49.246;9.100;2023-05-10T08:16:16;14.50;99.90
14119;DHT22;7138;49.246;9.100;2023-05-10T08:18:44;14.70;99.90
14119;DHT22;7138;49.246;9.100;2023-05-10T08:21:11;14.90;99.90
14119;DHT22;7138;49.246;9.100;2023-05-10T08:23:37;14.90;99.90
14119;DHT22;7138;49.246;9.100;2023-05-10T08:26:03;14.90;99.90
14119;DHT22;7138;49.246;9.100;2023-05-10T08:28:29;15.00;99.90
14119;DHT22;7138;49.246;9.100;2023-05-10T08:30:55;15.00;99.90
14119;DHT22;7138;49.246;9.100;2023-05-10T08:33:21;14.90;99.90
14119;DHT22;7138;49.246;9.100;2023-05-10T08:35:48;14.60;99.90
14119;DHT22;7138;49.246;9.100;2023-05-10T08:38:14;14.70;99.90
14119;DHT22;7138;49.246;9.100;2023-05-10T08:40:41;14.70;99.90
14119;DHT22;7138;49.246;9.100;2023-05-10T08:43:10;14.80;99.90
14119;DHT22;7138;49.246;9.100;2023-05-10T08:45:38;14.90;99.90
14119;DHT22;7138;49.246;9.100;2023-05-10T08:48:06;14.80;99.90
14119;DHT22;7138;49.246;9.100;2023-05-10T08:50:35;14.90;99.90
14119;DHT22;7138;49.246;9.100;2023-05-10T08:53:06;15.10;99.90
14119;DHT22;7138;49.246;9.100;2023-05-10T08:55:34;15.00;99.90
14119;DHT22;7138;49.246;9.100;2023-05-10T08:58:03;15.20;99.90
14119;DHT22;7138;49.246;9.100;2023-05-10T09:00:29;15.00;99.90
14119;DHT22;7138;49.246;9.100;2023-05-10T09:02:57;15.20;99.90
14119;DHT22;7138;49.246;9.100;2023-05-10T09:05:23;15.40;99.90
14119;DHT22;7138;49.246;9.100;2023-05-10T09:07:49;15.40;99.90
14119;DHT22;7138;49.246;9.100;2023-05-10T09:10:16;15.50;99.90
14119;DHT22;7138;49.246;9.100;2023-05-10T09:12:44;15.60;99.90
14119;DHT22;7138;49.246;9.100;2023-05-10T09:15:11;15.70;99.90
14119;DHT22;7138;49.246;9.100;2023-05-10T09:17:40;15.50;99.90
14119;DHT22;7138;49.246;9.100;2023-05-10T09:20:07;15.40;99.90
14119;DHT22;7138;49.246;9.100;2023-05-10T09:22:34;15.50;99.90
14119;DHT22;7138;49.246;9.100;2023-05-10T09:25:08;15.60;99.90
14119;DHT22;7138;49.246;9.100;2023-05-10T09:27:38;15.60;99.90
14119;DHT22;7138;49.246;9.100;2023-05-10T09:30:06;15.70;99.90
14119;DHT22;7138;49.246;9.100;2023-05-10T09:32:37;15.70;99.90
14119;DHT22;7138;49.246;9.100;2023-05-10T09:35:10;15.70;99.90
14119;DHT22;7138;49.246;9.100;2023-05-10T09:37:39;15.80;99.90
14119;DHT22;7138;49.246;9.100;2023-05-10T09:40:12;15.70;99.90
14119;DHT22;7138;49.246;9.100;2023-05-10T09:42:41;16.00;99.90
14119;DHT22;7138;49.246;9.100;2023-05-10T09:45:09;16.20;99.90
14119;DHT22;7138;49.246;9.100;2023-05-10T09:47:35;16.40;99.90
14119;DHT22;7138;49.246;9.100;2023-05-10T09:50:02;16.50;99.90
14119;DHT22;7138;49.246;9.100;2023-05-10T09:52:29;16.20;99.90
14119;DHT22;7138;49.246;9.100;2023-05-10T09:54:56;16.30;99.90
14119;DHT22;7138;49.246;9.100;2023-05-10T09:57:23;16.20;99.90
14119;DHT22;7138;49.246;9.100;2023-05-10T09:59:52;16.50;99.90
14119;DHT22;7138;49.246;9.100;2023-05-10T10:02:19;16.50;99.90
14119;DHT22;7138;49.246;9.100;2023-05-10T10:04:49;16.50;99.90
14119;DHT22;7138;49.246;9.100;2023-05-10T10:07:22;16.90;99.90
14119;DHT22;7138;49.246;9.100;2023-05-10T10:09:50;16.80;99.90
14119;DHT22;7138;49.246;9.100;2023-05-10T10:12:16;16.70;99.90
14119;DHT22;7138;49.246;9.100;2023-05-10T10:14:43;17.30;99.90
14119;DHT22;7138;49.246;9.100;2023-05-10T10:17:10;17.10;99.90
14119;DHT22;7138;49.246;9.100;2023-05-10T10:19:38;16.70;99.90
14119;DHT22;7138;49.246;9.100;2023-05-10T10:22:04;16.60;99.90
14119;DHT22;7138;49.246;9.100;2023-05-10T10:24:31;16.30;99.90
14119;DHT22;7138;49.246;9.100;2023-05-10T10:27:03;16.00;99.90
14119;DHT22;7138;49.246;9.100;2023-05-10T10:29:47;16.10;99.90
14119;DHT22;7138;49.246;9.100;2023-05-10T10:32:28;17.20;99.90
14119;DHT22;7138;49.246;9.100;2023-05-10T10:35:03;17.30;99.90
14119;DHT22;7138;49.246;9.100;2023-05-10T10:37:45;17.10;99.90
14119;DHT22;7138;49.246;9.100;2023-05-10T10:40:28;17.10;99.90
14119;DHT22;7138;49.246;9.100;2023-05-10T10:42:56;16.90;99.90
14119;DHT22;7138;49.246;9.100;2023-05-10T10:45:24;17.20;99.90
14119;DHT22;7138;49.246;9.100;2023-05-10T10:48:21;17.00;99.90
14119;DHT22;7138;49.246;9.100;2023-05-10T10:50:47;16.60;99.90
14119;DHT22;7138;49.246;9.100;2023-05-10T10:53:21;16.30;99.90
14119;DHT22;7138;49.246;9.100;2023-05-10T10:55:47;16.40;99.90
14119;DHT22;7138;49.246;9.100;2023-05-10T10:58:29;16.30;99.90
14119;DHT22;7138;49.246;9.100;2023-05-10T11:01:12;16.60;99.90
14119;DHT22;7138;49.246;9.100;2023-05-10T11:04:16;16.80;99.90
14119;DHT22;7138;49.246;9.100;2023-05-10T11:06:45;16.70;99.90
14119;DHT22;7138;49.246;9.100;2023-05-10T11:09:12;16.70;99.90
14119;DHT22;7138;49.246;9.100;2023-05-10T11:11:49;16.80;99.90
14119;DHT22;7138;49.246;9.100;2023-05-10T11:14:20;16.20;99.90
14119;DHT22;7138;49.246;9.100;2023-05-10T11:16:48;15.80;99.90
14119;DHT22;7138;49.246;9.100;2023-05-10T11:19:15;15.40;99.90
14119;DHT22;7138;49.246;9.100;2023-05-10T11:21:48;15.20;99.90
14119;DHT22;7138;49.246;9.100;2023-05-10T11:24:16;14.80;99.90
14119;DHT22;7138;49.246;9.100;2023-05-10T11:26:43;14.50;99.90
14119;DHT22;7138;49.246;9.100;2023-05-10T11:29:09;14.40;99.90
14119;DHT22;7138;49.246;9.100;2023-05-10T11:31:35;14.50;99.90
14119;DHT22;7138;49.246;9.100;2023-05-10T11:34:07;14.50;99.90
14119;DHT22;7138;49.246;9.100;2023-05-10T11:36:34;14.50;99.90
14119;DHT22;7138;49.246;9.100;2023-05-10T11:39:03;14.40;99.90
14119;DHT22;7138;49.246;9.100;2023-05-10T11:41:30;14.40;99.90
14119;DHT22;7138;49.246;9.100;2023-05-10T11:43:58;14.50;99.90
14119;DHT22;7138;49.246;9.100;2023-05-10T11:46:26;14.50;99.90
14119;DHT22;7138;49.246;9.100;2023-05-10T11:48:57;14.60;99.90
14119;DHT22;7138;49.246;9.100;2023-05-10T11:51:26;14.50;99.90
14119;DHT22;7138;49.246;9.100;2023-05-10T11:53:54;14.70;99.90
14119;DHT22;7138;49.246;9.100;2023-05-10T11:56:23;14.60;99.90
14119;DHT22;7138;49.246;9.100;2023-05-10T11:58:53;14.60;99.90
14119;DHT22;7138;49.246;9.100;2023-05-10T12:01:21;14.80;99.90
14119;DHT22;7138;49.246;9.100;2023-05-10T12:03:48;14.90;99.90
14119;DHT22;7138;49.246;9.100;2023-05-10T12:06:15;15.00;99.90
14119;DHT22;7138;49.246;9.100;2023-05-10T12:08:44;15.20;99.90
14119;DHT22;7138;49.246;9.100;2023-05-10T12:11:12;15.20;99.90
14119;DHT22;7138;49.246;9.100;2023-05-10T12:13:43;15.20;99.90
14119;DHT22;7138;49.246;9.100;2023-05-10T12:16:13;15.30;99.90
14119;DHT22;7138;49.246;9.100;2023-05-10T12:18:40;15.50;99.90
14119;DHT22;7138;49.246;9.100;2023-05-10T12:21:09;15.70;99.90
14119;DHT22;7138;49.246;9.100;2023-05-10T12:23:36;16.10;99.90
14119;DHT22;7138;49.246;9.100;2023-05-10T12:26:02;15.80;99.90
14119;DHT22;7138;49.246;9.100;2023-05-10T12:28:32;15.60;99.90
14119;DHT22;7138;49.246;9.100;2023-05-10T12:31:01;15.30;99.90
14119;DHT22;7138;49.246;9.100;2023-05-10T12:33:27;15.30;99.90
14119;DHT22;7138;49.246;9.100;2023-05-10T12:36:00;15.20;99.90
14119;DHT22;7138;49.246;9.100;2023-05-10T12:38:29;15.00;99.90
14119;DHT22;7138;49.246;9.100;2023-05-10T12:40:58;15.00;99.90
14119;DHT22;7138;49.246;9.100;2023-05-10T12:43:25;15.10;99.90
14119;DHT22;7138;49.246;9.100;2023-05-10T12:45:51;15.10;99.90
14119;DHT22;7138;49.246;9.100;2023-05-10T12:48:19;15.10;99.90
14119;DHT22;7138;49.246;9.100;2023-05-10T12:50:45;15.20;99.90
14119;DHT22;7138;49.246;9.100;2023-05-10T12:53:12;15.30;99.90
14119;DHT22;7138;49.246;9.100;2023-05-10T12:55:40;15.50;99.90
14119;DHT22;7138;49.246;9.100;2023-05-10T12:58:06;15.80;99.90
14119;DHT22;7138;49.246;9.100;2023-05-10T13:00:32;16.20;99.90
14119;DHT22;7138;49.246;9.100;2023-05-10T13:02:58;16.40;99.90
14119;DHT22;7138;49.246;9.100;2023-05-10T13:05:25;16.60;99.90
14119;DHT22;7138;49.246;9.100;2023-05-10T13:07:51;16.50;99.90
14119;DHT22;7138;49.246;9.100;2023-05-10T13:10:17;16.60;99.90
14119;DHT22;7138;49.246;9.100;2023-05-10T13:12:43;16.70;99.90
14119;DHT22;7138;49.246;9.100;2023-05-10T13:15:09;16.80;99.90
14119;DHT22;7138;49.246;9.100;2023-05-10T13:17:35;17.00;99.90
14119;DHT22;7138;49.246;9.100;2023-05-10T13:20:01;16.70;99.90
14119;DHT22;7138;49.246;9.100;2023-05-10T13:22:28;16.50;99.90
14119;DHT22;7138;49.246;9.100;2023-05-10T13:24:55;16.50;99.90
14119;DHT22;7138;49.246;9.100;2023-05-10T13:27:21;16.50;99.90
14119;DHT22;7138;49.246;9.100;2023-05-10T13:29:47;16.20;99.90
14119;DHT22;7138;49.246;9.100;2023-05-10T13:32:13;16.20;99.90
14119;DHT22;7138;49.246;9.100;2023-05-10T13:34:38;16.10;99.90
14119;DHT22;7138;49.246;9.100;2023-05-10T13:37:04;16.00;99.90
14119;DHT22;7138;49.246;9.100;2023-05-10T13:39:32;16.00;99.90
14119;DHT22;7138;49.246;9.100;2023-05-10T13:41:59;16.10;99.90
14119;DHT22;7138;49.246;9.100;2023-05-10T13:44:25;16.00;99.90
14119;DHT22;7138;49.246;9.100;2023-05-10T13:46:51;16.10;99.90
14119;DHT22;7138;49.246;9.100;2023-05-10T13:49:17;16.10;99.90
14119;DHT22;7138;49.246;9.100;2023-05-10T13:51:43;16.30;99.90
14119;DHT22;7138;49.246;9.100;2023-05-10T13:54:09;16.40;99.90
14119;DHT22;7138;49.246;9.100;2023-05-10T13:56:36;16.50;99.90
14119;DHT22;7138;49.246;9.100;2023-05-10T13:59:02;16.60;99.90
14119;DHT22;7138;49.246;9.100;2023-05-10T14:01:28;16.60;99.90
14119;DHT22;7138;49.246;9.100;2023-05-10T14:03:54;16.50;99.90
14119;DHT22;7138;49.246;9.100;2023-05-10T14:06:20;16.70;99.90
14119;DHT22;7138;49.246;9.100;2023-05-10T14:08:45;16.90;99.90
14119;DHT22;7138;49.246;9.100;2023-05-10T14:11:11;16.80;99.90
14119;DHT22;7138;49.246;9.100;2023-05-10T14:13:39;16.70;99.90
14119;DHT22;7138;49.246;9.100;2023-05-10T14:16:06;16.90;99.90
14119;DHT22;7138;49.246;9.100;2023-05-10T14:18:32;17.00;99.90
14119;DHT22;7138;49.246;9.100;2023-05-10T14:20:57;17.00;99.90
14119;DHT22;7138;49.246;9.100;2023-05-10T14:23:23;17.00;99.90
14119;DHT22;7138;49.246;9.100;2023-05-10T14:25:49;17.00;99.90
14119;DHT22;7138;49.246;9.100;2023-05-10T14:28:16;17.10;99.90
14119;DHT22;7138;49.246;9.100;2023-05-10T14:30:44;16.90;99.90
14119;DHT22;7138;49.246;9.100;2023-05-10T14:33:10;16.80;99.90
14119;DHT22;7138;49.246;9.100;2023-05-10T14:35:36;16.70;99.90
14119;DHT22;7138;49.246;9.100;2023-05-10T14:38:03;16.80;99.90
14119;DHT22;7138;49.246;9.100;2023-05-10T14:40:29;16.50;99.90
14119;DHT22;7138;49.246;9.100;2023-05-10T14:42:55;16.60;99.90
14119;DHT22;7138;49.246;9.100;2023-05-10T14:45:22;16.60;99.90
14119;DHT22;7138;49.246;9.100;2023-05-10T14:47:49;16.60;99.90
14119;DHT22;7138;49.246;9.100;2023-05-10T14:50:15;16.60;99.90
14119;DHT22;7138;49.246;9.100;2023-05-10T14:52:43;16.50;99.90
14119;DHT22;7138;49.246;9.100;2023-05-10T14:55:09;16.30;99.90
14119;DHT22;7138;49.246;9.100;2023-05-10T14:57:36;16.30;99.90
14119;DHT22;7138;49.246;9.100;2023-05-10T15:00:03;16.20;99.90
14119;DHT22;7138;49.246;9.100;2023-05-10T15:02:30;16.10;99.90
14119;DHT22;7138;49.246;9.100;2023-05-10T15:04:57;16.20;99.90
14119;DHT22;7138;49.246;9.100;2023-05-10T15:07:23;16.30;99.90
14119;DHT22;7138;49.246;9.100;2023-05-10T15:09:50;16.30;99.90
14119;DHT22;7138;49.246;9.100;2023-05-10T15:12:17;16.30;99.90
14119;DHT22;7138;49.246;9.100;2023-05-10T15:14:43;16.50;99.90
14119;DHT22;7138;49.246;9.100;2023-05-10T15:17:08;16.50;99.90
14119;DHT22;7138;49.246;9.100;2023-05-10T15:19:35;16.50;99.90
14119;DHT22;7138;49.246;9.100;2023-05-10T15:22:04;16.50;99.90
14119;DHT22;7138;49.246;9.100;2023-05-10T15:24:30;16.50;99.90
14119;DHT22;7138;49.246;9.100;2023-05-10T15:26:57;16.70;99.90
14119;DHT22;7138;49.246;9.100;2023-05-10T15:29:22;16.70;99.90
14119;DHT22;7138;49.246;9.100;2023-05-10T15:31:49;16.80;99.90
14119;DHT22;7138;49.246;9.100;2023-05-10T15:34:17;16.70;99.90
14119;DHT22;7138;49.246;9.100;2023-05-10T15:36:43;16.70;99.90
14119;DHT22;7138;49.246;9.100;2023-05-10T15:39:11;16.70;99.90
14119;DHT22;7138;49.246;9.100;2023-05-10T15:41:37;16.70;99.90
14119;DHT22;7138;49.246;9.100;2023-05-10T15:44:03;16.50;99.90
14119;DHT22;7138;49.246;9.100;2023-05-10T15:46:29;16.50;99.90
14119;DHT22;7138;49.246;9.100;2023-05-10T15:48:57;16.50;99.90
14119;DHT22;7138;49.246;9.100;2023-05-10T15:51:24;16.50;99.90
14119;DHT22;7138;49.246;9.100;2023-05-10T15:53:50;16.30;99.90
14119;DHT22;7138;49.246;9.100;2023-05-10T15:56:17;16.30;99.90